sensor_id;sensor_type;location;lat;lon;timestamp;P1;durP1;ratioP1;P2;durP2;ratioP2
13799;SDS011;6971;50.028;9.258;2023-03-01T00:04:36;15.47;;;10.33;;
13799;SDS011;6971;50.028;9.258;2023-03-01T00:09:37;17.77;;;11.97;;
13799;SDS011;6971;50.028;9.258;2023-03-01T00:14:38;14.47;;;10.27;;
13799;SDS011;6971;50.028;9.258;2023-03-01T00:19:38;15.37;;;10.47;;
13799;SDS011;6971;50.028;9.258;2023-03-01T00:24:38;17.77;;;11.03;;
13799;SDS011;6971;50.028;9.258;2023-03-01T00:29:39;16.80;;;12.10;;
13799;SDS011;6971;50.028;9.258;2023-03-01T00:34:39;18.33;;;10.97;;
13799;SDS011;6971;50.028;9.258;2023-03-01T00:39:40;17.27;;;12.20;;
13799;SDS011;6971;50.028;9.258;2023-03-01T00:44:40;16.27;;;11.63;;
13799;SDS011;6971;50.028;9.258;2023-03-01T00:49:40;21.07;;;12.93;;
13799;SDS011;6971;50.028;9.258;2023-03-01T00:54:41;16.23;;;11.60;;
13799;SDS011;6971;50.028;9.258;2023-03-01T00:59:41;18.10;;;11.73;;
13799;SDS011;6971;50.028;9.258;2023-03-01T01:04:41;19.57;;;12.40;;
13799;SDS011;6971;50.028;9.258;2023-03-01T01:09:42;19.97;;;12.57;;
13799;SDS011;6971;50.028;9.258;2023-03-01T01:14:42;18.30;;;12.30;;
13799;SDS011;6971;50.028;9.258;2023-03-01T01:19:43;17.33;;;12.07;;
13799;SDS011;6971;50.028;9.258;2023-03-01T01:24:43;16.53;;;11.87;;
13799;SDS011;6971;50.028;9.258;2023-03-01T01:29:43;16.77;;;12.60;;
13799;SDS011;6971;50.028;9.258;2023-03-01T01:34:44;15.40;;;11.23;;
13799;SDS011;6971;50.028;9.258;2023-03-01T01:39:46;19.63;;;13.93;;
13799;SDS011;6971;50.028;9.258;2023-03-01T01:44:47;17.87;;;12.70;;
13799;SDS011;6971;50.028;9.258;2023-03-01T01:49:53;19.90;;;12.63;;
13799;SDS011;6971;50.028;9.258;2023-03-01T02:00:06;16.90;;;12.43;;
13799;SDS011;6971;50.028;9.258;2023-03-01T02:05:11;18.53;;;14.07;;
13799;SDS011;6971;50.028;9.258;2023-03-01T02:10:17;16.10;;;12.10;;
13799;SDS011;6971;50.028;9.258;2023-03-01T02:15:17;18.70;;;13.43;;
13799;SDS011;6971;50.028;9.258;2023-03-01T02:30:49;18.10;;;12.77;;
13799;SDS011;6971;50.028;9.258;2023-03-01T02:36:19;18.83;;;12.87;;
13799;SDS011;6971;50.028;9.258;2023-03-01T02:41:24;16.33;;;12.70;;
13799;SDS011;6971;50.028;9.258;2023-03-01T02:46:28;17.83;;;12.53;;
13799;SDS011;6971;50.028;9.258;2023-03-01T02:56:32;18.63;;;12.27;;
13799;SDS011;6971;50.028;9.258;2023-03-01T03:01:34;18.47;;;12.83;;
13799;SDS011;6971;50.028;9.258;2023-03-01T03:06:38;20.77;;;14.17;;
13799;SDS011;6971;50.028;9.258;2023-03-01T03:11:38;20.93;;;13.77;;
13799;SDS011;6971;50.028;9.258;2023-03-01T03:16:43;21.20;;;13.47;;
13799;SDS011;6971;50.028;9.258;2023-03-01T03:21:46;21.97;;;15.17;;
13799;SDS011;6971;50.028;9.258;2023-03-01T03:26:47;22.80;;;14.50;;
13799;SDS011;6971;50.028;9.258;2023-03-01T03:31:47;22.60;;;14.50;;
13799;SDS011;6971;50.028;9.258;2023-03-01T03:36:47;21.70;;;13.97;;
13799;SDS011;6971;50.028;9.258;2023-03-01T03:41:48;20.50;;;13.40;;
13799;SDS011;6971;50.028;9.258;2023-03-01T03:46:48;22.43;;;15.17;;
13799;SDS011;6971;50.028;9.258;2023-03-01T03:51:48;20.67;;;13.52;;
13799;SDS011;6971;50.028;9.258;2023-03-01T03:56:49;21.10;;;14.20;;
13799;SDS011;6971;50.028;9.258;2023-03-01T04:01:49;19.27;;;13.77;;
13799;SDS011;6971;50.028;9.258;2023-03-01T04:06:49;22.50;;;14.13;;
13799;SDS011;6971;50.028;9.258;2023-03-01T04:11:50;18.80;;;13.53;;
13799;SDS011;6971;50.028;9.258;2023-03-01T04:16:50;21.97;;;13.33;;
13799;SDS011;6971;50.028;9.258;2023-03-01T04:21:50;20.07;;;13.60;;
13799;SDS011;6971;50.028;9.258;2023-03-01T04:26:51;21.37;;;13.00;;
13799;SDS011;6971;50.028;9.258;2023-03-01T04:31:54;18.87;;;12.77;;
13799;SDS011;6971;50.028;9.258;2023-03-01T04:36:55;20.90;;;13.73;;
13799;SDS011;6971;50.028;9.258;2023-03-01T04:41:55;20.43;;;13.30;;
13799;SDS011;6971;50.028;9.258;2023-03-01T04:46:56;21.43;;;13.43;;
13799;SDS011;6971;50.028;9.258;2023-03-01T04:51:56;20.37;;;14.10;;
13799;SDS011;6971;50.028;9.258;2023-03-01T04:57:02;18.37;;;13.63;;
13799;SDS011;6971;50.028;9.258;2023-03-01T05:02:03;19.23;;;14.10;;
13799;SDS011;6971;50.028;9.258;2023-03-01T05:07:03;21.53;;;14.53;;
13799;SDS011;6971;50.028;9.258;2023-03-01T05:12:03;20.07;;;13.50;;
13799;SDS011;6971;50.028;9.258;2023-03-01T05:17:05;21.17;;;13.80;;
13799;SDS011;6971;50.028;9.258;2023-03-01T05:22:06;20.87;;;13.50;;
13799;SDS011;6971;50.028;9.258;2023-03-01T05:27:06;19.80;;;13.70;;
13799;SDS011;6971;50.028;9.258;2023-03-01T05:32:07;20.73;;;13.73;;
13799;SDS011;6971;50.028;9.258;2023-03-01T05:37:08;22.77;;;14.90;;
13799;SDS011;6971;50.028;9.258;2023-03-01T05:42:10;21.83;;;14.50;;
13799;SDS011;6971;50.028;9.258;2023-03-01T05:47:11;22.77;;;14.83;;
13799;SDS011;6971;50.028;9.258;2023-03-01T05:52:11;21.17;;;13.63;;
13799;SDS011;6971;50.028;9.258;2023-03-01T05:57:12;21.07;;;14.63;;
13799;SDS011;6971;50.028;9.258;2023-03-01T06:02:12;20.87;;;13.37;;
13799;SDS011;6971;50.028;9.258;2023-03-01T06:07:13;19.70;;;12.20;;
13799;SDS011;6971;50.028;9.258;2023-03-01T06:12:13;22.20;;;13.60;;
13799;SDS011;6971;50.028;9.258;2023-03-01T06:17:13;23.30;;;14.03;;
13799;SDS011;6971;50.028;9.258;2023-03-01T06:22:14;22.20;;;14.30;;
13799;SDS011;6971;50.028;9.258;2023-03-01T06:27:14;21.03;;;13.80;;
13799;SDS011;6971;50.028;9.258;2023-03-01T06:32:15;19.90;;;13.33;;
13799;SDS011;6971;50.028;9.258;2023-03-01T06:37:15;19.50;;;13.07;;
13799;SDS011;6971;50.028;9.258;2023-03-01T06:42:16;17.67;;;12.60;;
13799;SDS011;6971;50.028;9.258;2023-03-01T06:47:16;19.53;;;13.47;;
13799;SDS011;6971;50.028;9.258;2023-03-01T06:52:17;21.10;;;13.53;;
13799;SDS011;6971;50.028;9.258;2023-03-01T06:57:17;21.13;;;13.07;;
13799;SDS011;6971;50.028;9.258;2023-03-01T07:02:18;18.00;;;12.67;;
13799;SDS011;6971;50.028;9.258;2023-03-01T07:07:18;23.60;;;16.90;;
13799;SDS011;6971;50.028;9.258;2023-03-01T07:12:19;19.53;;;14.63;;
13799;SDS011;6971;50.028;9.258;2023-03-01T07:17:19;19.40;;;14.30;;
13799;SDS011;6971;50.028;9.258;2023-03-01T07:22:19;18.73;;;13.70;;
13799;SDS011;6971;50.028;9.258;2023-03-01T07:27:20;27.17;;;19.77;;
13799;SDS011;6971;50.028;9.258;2023-03-01T07:32:20;26.30;;;16.90;;
13799;SDS011;6971;50.028;9.258;2023-03-01T07:37:20;21.50;;;15.77;;
13799;SDS011;6971;50.028;9.258;2023-03-01T07:42:21;24.73;;;15.00;;
13799;SDS011;6971;50.028;9.258;2023-03-01T07:47:21;28.77;;;18.87;;
13799;SDS011;6971;50.028;9.258;2023-03-01T07:52:22;27.70;;;17.77;;
13799;SDS011;6971;50.028;9.258;2023-03-01T07:57:22;31.50;;;21.77;;
13799;SDS011;6971;50.028;9.258;2023-03-01T08:02:23;31.37;;;20.93;;
13799;SDS011;6971;50.028;9.258;2023-03-01T08:07:23;23.40;;;17.23;;
13799;SDS011;6971;50.028;9.258;2023-03-01T08:12:24;27.43;;;18.57;;
13799;SDS011;6971;50.028;9.258;2023-03-01T08:17:24;19.13;;;13.20;;
13799;SDS011;6971;50.028;9.258;2023-03-01T08:22:24;24.20;;;18.70;;
13799;SDS011;6971;50.028;9.258;2023-03-01T08:27:25;20.03;;;15.20;;
13799;SDS011;6971;50.028;9.258;2023-03-01T08:32:25;19.73;;;13.70;;
13799;SDS011;6971;50.028;9.258;2023-03-01T08:37:25;19.07;;;15.03;;
13799;SDS011;6971;50.028;9.258;2023-03-01T08:42:26;28.50;;;20.60;;
13799;SDS011;6971;50.028;9.258;2023-03-01T08:47:26;20.97;;;14.77;;
13799;SDS011;6971;50.028;9.258;2023-03-01T08:52:27;20.47;;;17.03;;
13799;SDS011;6971;50.028;9.258;2023-03-01T08:57:30;20.60;;;15.47;;
13799;SDS011;6971;50.028;9.258;2023-03-01T09:02:30;22.33;;;18.47;;
13799;SDS011;6971;50.028;9.258;2023-03-01T09:07:30;17.87;;;13.07;;
13799;SDS011;6971;50.028;9.258;2023-03-01T09:12:31;17.33;;;13.80;;
13799;SDS011;6971;50.028;9.258;2023-03-01T09:17:31;15.67;;;13.73;;
13799;SDS011;6971;50.028;9.258;2023-03-01T09:22:33;16.63;;;12.83;;
13799;SDS011;6971;50.028;9.258;2023-03-01T09:27:34;15.00;;;12.60;;
13799;SDS011;6971;50.028;9.258;2023-03-01T09:32:35;17.73;;;12.53;;
13799;SDS011;6971;50.028;9.258;2023-03-01T09:37:35;18.13;;;12.60;;
13799;SDS011;6971;50.028;9.258;2023-03-01T09:42:37;17.73;;;12.90;;
13799;SDS011;6971;50.028;9.258;2023-03-01T09:47:49;19.27;;;13.53;;
13799;SDS011;6971;50.028;9.258;2023-03-01T10:03:39;16.07;;;12.80;;
13799;SDS011;6971;50.028;9.258;2023-03-01T10:08:50;17.80;;;12.73;;
13799;SDS011;6971;50.028;9.258;2023-03-01T10:14:07;15.43;;;11.63;;
13799;SDS011;6971;50.028;9.258;2023-03-01T10:19:25;15.87;;;11.60;;
13799;SDS011;6971;50.028;9.258;2023-03-01T10:24:33;15.03;;;12.67;;
13799;SDS011;6971;50.028;9.258;2023-03-01T10:29:37;15.83;;;11.77;;
13799;SDS011;6971;50.028;9.258;2023-03-01T10:34:45;16.97;;;13.07;;
13799;SDS011;6971;50.028;9.258;2023-03-01T10:40:03;17.70;;;11.97;;
13799;SDS011;6971;50.028;9.258;2023-03-01T10:50:30;13.03;;;11.37;;
13799;SDS011;6971;50.028;9.258;2023-03-01T10:55:38;15.07;;;12.80;;
13799;SDS011;6971;50.028;9.258;2023-03-01T11:00:45;12.63;;;11.07;;
13799;SDS011;6971;50.028;9.258;2023-03-01T11:10:59;14.83;;;10.40;;
13799;SDS011;6971;50.028;9.258;2023-03-01T11:16:10;13.47;;;9.73;;
13799;SDS011;6971;50.028;9.258;2023-03-01T11:21:12;13.67;;;9.17;;
13799;SDS011;6971;50.028;9.258;2023-03-01T11:26:12;10.97;;;9.77;;
13799;SDS011;6971;50.028;9.258;2023-03-01T11:31:15;10.70;;;9.33;;
13799;SDS011;6971;50.028;9.258;2023-03-01T11:36:24;13.20;;;9.60;;
13799;SDS011;6971;50.028;9.258;2023-03-01T11:41:40;10.90;;;8.93;;
13799;SDS011;6971;50.028;9.258;2023-03-01T11:46:44;13.87;;;9.77;;
13799;SDS011;6971;50.028;9.258;2023-03-01T12:13:35;9.53;;;7.87;;
13799;SDS011;6971;50.028;9.258;2023-03-01T12:35:46;10.10;;;8.83;;
13799;SDS011;6971;50.028;9.258;2023-03-01T12:51:51;9.20;;;8.17;;
13799;SDS011;6971;50.028;9.258;2023-03-01T12:57:16;9.07;;;8.00;;
13799;SDS011;6971;50.028;9.258;2023-03-01T13:07:37;10.70;;;8.63;;
13799;SDS011;6971;50.028;9.258;2023-03-01T13:17:57;13.27;;;10.40;;
13799;SDS011;6971;50.028;9.258;2023-03-01T13:23:03;10.27;;;8.63;;
13799;SDS011;6971;50.028;9.258;2023-03-01T13:38:54;10.57;;;7.10;;
13799;SDS011;6971;50.028;9.258;2023-03-01T13:43:59;9.50;;;7.20;;
13799;SDS011;6971;50.028;9.258;2023-03-01T13:48:59;9.27;;;7.63;;
13799;SDS011;6971;50.028;9.258;2023-03-01T13:54:00;8.67;;;7.67;;
13799;SDS011;6971;50.028;9.258;2023-03-01T13:59:13;9.60;;;8.60;;
13799;SDS011;6971;50.028;9.258;2023-03-01T14:04:26;10.37;;;8.10;;
13799;SDS011;6971;50.028;9.258;2023-03-01T14:09:32;19.77;;;17.67;;
13799;SDS011;6971;50.028;9.258;2023-03-01T14:19:58;8.87;;;8.00;;
13799;SDS011;6971;50.028;9.258;2023-03-01T14:25:02;10.87;;;9.67;;
13799;SDS011;6971;50.028;9.258;2023-03-01T14:30:24;10.30;;;7.63;;
13799;SDS011;6971;50.028;9.258;2023-03-01T14:35:29;7.97;;;6.80;;
13799;SDS011;6971;50.028;9.258;2023-03-01T14:40:35;7.23;;;6.13;;
13799;SDS011;6971;50.028;9.258;2023-03-01T14:45:36;8.03;;;7.13;;
13799;SDS011;6971;50.028;9.258;2023-03-01T14:50:40;6.87;;;6.00;;
13799;SDS011;6971;50.028;9.258;2023-03-01T14:55:44;14.70;;;10.40;;
13799;SDS011;6971;50.028;9.258;2023-03-01T15:00:50;9.53;;;7.20;;
13799;SDS011;6971;50.028;9.258;2023-03-01T15:05:53;6.23;;;5.50;;
13799;SDS011;6971;50.028;9.258;2023-03-01T15:10:58;8.57;;;6.07;;
13799;SDS011;6971;50.028;9.258;2023-03-01T15:16:30;13.67;;;9.77;;
13799;SDS011;6971;50.028;9.258;2023-03-01T15:21:33;9.40;;;6.57;;
13799;SDS011;6971;50.028;9.258;2023-03-01T15:26:37;6.83;;;5.63;;
13799;SDS011;6971;50.028;9.258;2023-03-01T15:31:41;10.40;;;9.03;;
13799;SDS011;6971;50.028;9.258;2023-03-01T15:36:44;14.50;;;10.53;;
13799;SDS011;6971;50.028;9.258;2023-03-01T15:41:46;16.93;;;11.67;;
13799;SDS011;6971;50.028;9.258;2023-03-01T15:46:50;13.63;;;10.47;;
13799;SDS011;6971;50.028;9.258;2023-03-01T15:51:51;30.13;;;20.03;;
13799;SDS011;6971;50.028;9.258;2023-03-01T15:56:55;17.13;;;12.33;;
13799;SDS011;6971;50.028;9.258;2023-03-01T16:01:57;14.90;;;11.20;;
13799;SDS011;6971;50.028;9.258;2023-03-01T16:06:58;18.63;;;12.63;;
13799;SDS011;6971;50.028;9.258;2023-03-01T16:11:58;15.53;;;12.83;;
13799;SDS011;6971;50.028;9.258;2023-03-01T16:16:58;15.93;;;13.43;;
13799;SDS011;6971;50.028;9.258;2023-03-01T16:21:59;17.43;;;12.57;;
13799;SDS011;6971;50.028;9.258;2023-03-01T16:27:02;18.67;;;13.03;;
13799;SDS011;6971;50.028;9.258;2023-03-01T16:32:03;17.53;;;12.97;;
13799;SDS011;6971;50.028;9.258;2023-03-01T16:37:04;16.63;;;12.60;;
13799;SDS011;6971;50.028;9.258;2023-03-01T16:42:04;16.53;;;12.60;;
13799;SDS011;6971;50.028;9.258;2023-03-01T16:47:05;19.03;;;13.17;;
13799;SDS011;6971;50.028;9.258;2023-03-01T16:52:05;21.10;;;14.10;;
13799;SDS011;6971;50.028;9.258;2023-03-01T16:57:06;18.03;;;12.43;;
13799;SDS011;6971;50.028;9.258;2023-03-01T17:02:08;18.03;;;14.27;;
13799;SDS011;6971;50.028;9.258;2023-03-01T17:07:10;16.00;;;12.03;;
13799;SDS011;6971;50.028;9.258;2023-03-01T17:12:11;20.77;;;11.47;;
13799;SDS011;6971;50.028;9.258;2023-03-01T17:17:12;15.67;;;11.10;;
13799;SDS011;6971;50.028;9.258;2023-03-01T17:22:13;15.63;;;11.27;;
13799;SDS011;6971;50.028;9.258;2023-03-01T17:27:13;15.43;;;11.80;;
13799;SDS011;6971;50.028;9.258;2023-03-01T17:32:14;15.07;;;11.70;;
13799;SDS011;6971;50.028;9.258;2023-03-01T17:37:17;17.63;;;11.00;;
13799;SDS011;6971;50.028;9.258;2023-03-01T17:42:18;13.17;;;10.30;;
13799;SDS011;6971;50.028;9.258;2023-03-01T17:47:18;14.97;;;10.17;;
13799;SDS011;6971;50.028;9.258;2023-03-01T17:52:19;12.77;;;10.40;;
13799;SDS011;6971;50.028;9.258;2023-03-01T17:57:22;14.93;;;9.97;;
13799;SDS011;6971;50.028;9.258;2023-03-01T18:02:23;16.57;;;10.13;;
13799;SDS011;6971;50.028;9.258;2023-03-01T18:07:25;15.07;;;10.67;;
13799;SDS011;6971;50.028;9.258;2023-03-01T18:12:26;15.37;;;10.63;;
13799;SDS011;6971;50.028;9.258;2023-03-01T18:17:26;16.10;;;10.50;;
13799;SDS011;6971;50.028;9.258;2023-03-01T18:22:26;12.83;;;9.73;;
13799;SDS011;6971;50.028;9.258;2023-03-01T18:27:27;15.50;;;9.80;;
13799;SDS011;6971;50.028;9.258;2023-03-01T18:32:27;13.33;;;8.63;;
13799;SDS011;6971;50.028;9.258;2023-03-01T18:37:28;12.27;;;8.97;;
13799;SDS011;6971;50.028;9.258;2023-03-01T18:42:28;14.97;;;10.47;;
13799;SDS011;6971;50.028;9.258;2023-03-01T18:47:28;18.27;;;11.43;;
13799;SDS011;6971;50.028;9.258;2023-03-01T18:52:29;14.67;;;9.43;;
13799;SDS011;6971;50.028;9.258;2023-03-01T18:57:29;12.70;;;9.60;;
13799;SDS011;6971;50.028;9.258;2023-03-01T19:02:29;15.43;;;10.90;;
13799;SDS011;6971;50.028;9.258;2023-03-01T19:07:30;32.80;;;20.57;;
13799;SDS011;6971;50.028;9.258;2023-03-01T19:12:30;15.90;;;10.80;;
13799;SDS011;6971;50.028;9.258;2023-03-01T19:17:31;28.20;;;19.43;;
13799;SDS011;6971;50.028;9.258;2023-03-01T19:22:32;13.57;;;9.77;;
13799;SDS011;6971;50.028;9.258;2023-03-01T19:27:33;13.37;;;10.43;;
13799;SDS011;6971;50.028;9.258;2023-03-01T19:32:34;13.13;;;9.47;;
13799;SDS011;6971;50.028;9.258;2023-03-01T19:37:34;17.83;;;10.23;;
13799;SDS011;6971;50.028;9.258;2023-03-01T19:42:35;14.63;;;10.40;;
13799;SDS011;6971;50.028;9.258;2023-03-01T19:47:35;16.57;;;10.50;;
13799;SDS011;6971;50.028;9.258;2023-03-01T19:52:36;14.43;;;10.37;;
13799;SDS011;6971;50.028;9.258;2023-03-01T19:57:36;14.37;;;9.83;;
13799;SDS011;6971;50.028;9.258;2023-03-01T20:02:36;14.40;;;10.00;;
13799;SDS011;6971;50.028;9.258;2023-03-01T20:07:37;15.50;;;11.47;;
13799;SDS011;6971;50.028;9.258;2023-03-01T20:12:37;16.10;;;10.53;;
13799;SDS011;6971;50.028;9.258;2023-03-01T20:17:38;17.43;;;12.23;;
13799;SDS011;6971;50.028;9.258;2023-03-01T20:22:38;15.10;;;10.80;;
13799;SDS011;6971;50.028;9.258;2023-03-01T20:27:39;15.03;;;10.80;;
13799;SDS011;6971;50.028;9.258;2023-03-01T20:32:39;14.50;;;11.10;;
13799;SDS011;6971;50.028;9.258;2023-03-01T20:37:39;16.37;;;11.17;;
13799;SDS011;6971;50.028;9.258;2023-03-01T20:42:40;15.83;;;10.97;;
13799;SDS011;6971;50.028;9.258;2023-03-01T20:47:40;15.10;;;10.47;;
13799;SDS011;6971;50.028;9.258;2023-03-01T20:52:40;16.33;;;10.93;;
13799;SDS011;6971;50.028;9.258;2023-03-01T20:57:41;17.00;;;11.23;;
13799;SDS011;6971;50.028;9.258;2023-03-01T21:02:41;15.10;;;10.07;;
13799;SDS011;6971;50.028;9.258;2023-03-01T21:07:42;13.87;;;9.97;;
13799;SDS011;6971;50.028;9.258;2023-03-01T21:12:44;16.83;;;11.57;;
13799;SDS011;6971;50.028;9.258;2023-03-01T21:17:45;18.03;;;11.90;;
13799;SDS011;6971;50.028;9.258;2023-03-01T21:22:47;18.90;;;12.67;;
13799;SDS011;6971;50.028;9.258;2023-03-01T21:27:47;19.87;;;11.07;;
13799;SDS011;6971;50.028;9.258;2023-03-01T21:32:47;18.57;;;12.60;;
13799;SDS011;6971;50.028;9.258;2023-03-01T21:37:48;16.33;;;12.00;;
13799;SDS011;6971;50.028;9.258;2023-03-01T21:42:48;17.43;;;11.83;;
13799;SDS011;6971;50.028;9.258;2023-03-01T21:47:48;20.95;;;12.35;;
13799;SDS011;6971;50.028;9.258;2023-03-01T21:52:48;16.73;;;12.03;;
13799;SDS011;6971;50.028;9.258;2023-03-01T21:57:49;19.37;;;12.60;;
13799;SDS011;6971;50.028;9.258;2023-03-01T22:02:49;18.97;;;12.50;;
13799;SDS011;6971;50.028;9.258;2023-03-01T22:07:49;17.30;;;12.93;;
13799;SDS011;6971;50.028;9.258;2023-03-01T22:12:50;17.27;;;11.83;;
13799;SDS011;6971;50.028;9.258;2023-03-01T22:17:51;18.83;;;12.77;;
13799;SDS011;6971;50.028;9.258;2023-03-01T22:22:52;17.20;;;12.73;;
13799;SDS011;6971;50.028;9.258;2023-03-01T22:27:53;21.13;;;13.10;;
13799;SDS011;6971;50.028;9.258;2023-03-01T22:32:53;19.73;;;13.97;;
13799;SDS011;6971;50.028;9.258;2023-03-01T22:37:53;21.87;;;13.77;;
13799;SDS011;6971;50.028;9.258;2023-03-01T22:42:54;21.30;;;13.47;;
13799;SDS011;6971;50.028;9.258;2023-03-01T22:47:56;21.50;;;13.63;;
13799;SDS011;6971;50.028;9.258;2023-03-01T22:52:57;21.87;;;13.03;;
13799;SDS011;6971;50.028;9.258;2023-03-01T22:58:00;21.20;;;14.30;;
13799;SDS011;6971;50.028;9.258;2023-03-01T23:03:00;20.40;;;13.90;;
13799;SDS011;6971;50.028;9.258;2023-03-01T23:08:01;21.73;;;13.20;;
13799;SDS011;6971;50.028;9.258;2023-03-01T23:13:01;19.17;;;13.87;;
13799;SDS011;6971;50.028;9.258;2023-03-01T23:18:01;20.77;;;13.23;;
13799;SDS011;6971;50.028;9.258;2023-03-01T23:23:02;19.80;;;12.97;;
13799;SDS011;6971;50.028;9.258;2023-03-01T23:28:02;16.27;;;10.63;;
13799;SDS011;6971;50.028;9.258;2023-03-01T23:33:03;28.33;;;13.83;;
13799;SDS011;6971;50.028;9.258;2023-03-01T23:38:03;18.13;;;13.00;;
13799;SDS011;6971;50.028;9.258;2023-03-01T23:43:04;19.10;;;13.47;;
13799;SDS011;6971;50.028;9.258;2023-03-01T23:48:04;19.43;;;14.57;;
13799;SDS011;6971;50.028;9.258;2023-03-01T23:53:04;20.83;;;14.17;;
13799;SDS011;6971;50.028;9.258;2023-03-01T23:58:05;21.88;;;14.07;;
